IE-0022 weather

Morriscastle Airstrip
Morriscastle, Ireland

Public forecast

Using degrees Celsius for public forecast. Weather courtesy of forecast.io.

Closest aviation weather report (METAR) to Morriscastle Airstrip

Closest report is Waterford Airport, 36.2 nm (67.0 km) WSW. Retrieved 2019/12/16 09:30 UTC (30 minutes ago):

EIWF 160930Z 27002KT 9999 FEW015CB FEW031 02/01 Q0997

Closest aviation forecast (TAF) to Morriscastle Airstrip

Closest forecast is Dublin Airport, 54.3 nm (100.6 km) N. Retrieved 2019/12/16 06:09 UTC (4 hours ago):

TAF EIDW 160500Z 1606/1706 23010KT 9999 FEW010 SCT016 PROB30 TEMPO 1704/1706 3000 BR